Time;durP1;ratioP1;P1;durP2;ratioP2;P2;SDS_P1;SDS_P2;PMS_P1;PMS_P2;Temp;Humidity;BMP_temperature;BMP_pressure;BME280_temperature;BME280_humidity;BME280_pressure;Samples;Min_cycle;Max_cycle;Signal;HPM_P1;HPM_P2
2023/02/12 00:02:16;;;;;;;12.68;10.50;;;10.70;99.90;;;;;;5073787;28;20190;-84
2023/02/12 00:04:41;;;;;;;9.82;8.93;;;10.50;99.90;;;;;;5073708;28;20162;-83
2023/02/12 00:07:07;;;;;;;12.05;10.05;;;10.30;99.90;;;;;;5073656;28;20178;-86
2023/02/12 00:09:33;;;;;;;15.73;9.93;;;10.50;99.90;;;;;;5074087;28;20638;-82
2023/02/12 00:11:58;;;;;;;11.02;9.00;;;10.40;99.90;;;;;;5073875;28;20670;-82
2023/02/12 00:14:24;;;;;;;11.85;10.18;;;10.40;99.90;;;;;;5074483;28;20194;-82
2023/02/12 00:16:50;;;;;;;18.00;9.55;;;10.40;99.90;;;;;;5072120;28;20232;-82
2023/02/12 00:19:15;;;;;;;10.45;8.48;;;10.40;99.90;;;;;;5073556;28;20175;-82
2023/02/12 00:21:41;;;;;;;10.18;9.18;;;10.50;99.90;;;;;;5071864;28;20272;-85
2023/02/12 00:24:07;;;;;;;13.07;9.27;;;10.60;99.90;;;;;;5073849;28;20245;-84
2023/02/12 00:26:32;;;;;;;15.45;8.77;;;10.60;99.90;;;;;;5073506;28;20155;-85
2023/02/12 00:28:58;;;;;;;18.25;9.90;;;10.70;99.90;;;;;;5072044;28;20185;-83
2023/02/12 00:31:26;;;;;;;12.02;8.68;;;11.00;99.90;;;;;;5072057;28;20194;-82
2023/02/12 00:33:52;;;;;;;11.23;9.93;;;10.90;99.90;;;;;;5073169;28;20166;-82
2023/02/12 00:36:21;;;;;;;15.30;9.77;;;10.90;99.90;;;;;;5073561;28;20163;-84
2023/02/12 00:38:48;;;;;;;10.70;8.77;;;11.00;99.90;;;;;;5072818;28;20913;-82
2023/02/12 00:41:14;;;;;;;22.30;9.90;;;10.90;99.90;;;;;;5073179;28;20253;-82
2023/02/12 00:43:39;;;;;;;13.23;10.00;;;10.90;99.90;;;;;;5073446;28;20261;-84
2023/02/12 00:46:05;;;;;;;17.40;11.38;;;10.90;99.90;;;;;;5071803;28;20196;-84
2023/02/12 00:48:32;;;;;;;10.80;9.45;;;11.10;99.90;;;;;;5071632;28;20197;-82
2023/02/12 00:50:58;;;;;;;17.88;10.13;;;10.90;99.90;;;;;;5071599;28;20533;-83
2023/02/12 00:53:23;;;;;;;12.95;10.10;;;10.80;99.90;;;;;;5072954;28;20607;-82
2023/02/12 00:55:49;;;;;;;18.40;10.10;;;10.70;99.90;;;;;;5072966;28;20367;-83
2023/02/12 00:58:15;;;;;;;11.52;9.88;;;10.70;99.90;;;;;;5072733;28;20194;-82
2023/02/12 01:00:42;;;;;;;13.25;10.00;;;10.80;99.90;;;;;;5071899;28;20170;-86
2023/02/12 01:03:08;;;;;;;13.13;10.32;;;10.90;99.90;;;;;;5072674;28;20187;-83
2023/02/12 01:05:34;;;;;;;15.25;10.30;;;10.90;99.90;;;;;;5072978;28;20344;-82
2023/02/12 01:08:00;;;;;;;12.23;10.18;;;10.60;99.90;;;;;;5071692;28;20228;-83
2023/02/12 01:10:26;;;;;;;10.70;9.57;;;10.60;99.90;;;;;;5072725;28;20243;-83
2023/02/12 01:12:52;;;;;;;17.95;9.77;;;10.70;99.90;;;;;;5071608;28;20236;-84
2023/02/12 01:15:18;;;;;;;11.27;10.13;;;10.70;99.90;;;;;;5071671;28;20215;-84
2023/02/12 01:17:44;;;;;;;13.10;9.63;;;10.60;99.90;;;;;;5072974;28;20696;-85
2023/02/12 01:20:13;;;;;;;11.05;9.95;;;10.50;99.90;;;;;;5073007;28;20185;-86
2023/02/12 01:22:39;;;;;;;12.25;9.93;;;10.60;99.90;;;;;;5072049;28;20723;-85
2023/02/12 01:25:06;;;;;;;10.38;9.30;;;10.70;99.90;;;;;;5072789;28;20676;-82
2023/02/12 01:27:32;;;;;;;13.00;11.10;;;10.60;99.90;;;;;;5071980;28;20656;-82
2023/02/12 01:29:57;;;;;;;18.50;10.95;;;10.60;99.90;;;;;;5072701;28;20179;-82
2023/02/12 01:32:23;;;;;;;14.70;9.98;;;10.70;99.90;;;;;;5071406;28;20297;-82
2023/02/12 01:34:49;;;;;;;10.48;9.38;;;10.70;99.90;;;;;;5072245;28;20178;-81
2023/02/12 01:37:14;;;;;;;13.70;9.57;;;10.80;99.90;;;;;;5072181;28;20248;-83
2023/02/12 01:39:40;;;;;;;11.07;9.40;;;10.70;99.90;;;;;;5073132;28;20209;-83
2023/02/12 01:42:06;;;;;;;10.02;9.02;;;10.80;99.90;;;;;;5072224;28;20190;-81
2023/02/12 01:44:35;;;;;;;14.50;8.98;;;10.70;99.90;;;;;;5072193;28;20262;-80
2023/02/12 01:47:04;;;;;;;11.13;9.90;;;10.60;99.90;;;;;;5071860;28;20250;-80
2023/02/12 01:49:32;;;;;;;16.70;10.50;;;10.60;99.90;;;;;;5072032;28;20163;-80
2023/02/12 01:52:12;;;;;;;12.85;11.05;;;10.60;99.90;;;;;;5074147;28;20734;-82
2023/02/12 01:54:40;;;;;;;13.50;12.05;;;10.70;99.90;;;;;;5075982;28;20568;-82
2023/02/12 01:57:10;;;;;;;12.02;10.48;;;10.70;99.90;;;;;;5075768;28;20228;-80
2023/02/12 01:59:37;;;;;;;11.20;10.20;;;10.70;99.90;;;;;;5075448;28;20631;-80
2023/02/12 02:02:04;;;;;;;11.48;10.00;;;10.50;99.90;;;;;;5076032;28;20182;-81
2023/02/12 02:04:37;;;;;;;15.98;12.70;;;10.60;99.90;;;;;;5074652;28;20170;-82
2023/02/12 02:07:05;;;;;;;14.85;10.77;;;10.60;99.90;;;;;;5074459;28;20178;-82
2023/02/12 02:09:34;;;;;;;11.13;10.05;;;10.70;99.90;;;;;;5074550;28;20198;-81
2023/02/12 02:14:44;;;;;;;13.02;10.77;;;10.70;99.90;;;;;;5075799;28;20197;-81
2023/02/12 02:17:31;;;;;;;11.65;10.50;;;10.60;99.90;;;;;;5075423;28;20320;-81
2023/02/12 02:20:02;;;;;;;11.95;10.48;;;10.70;99.90;;;;;;5079119;28;20166;-81
2023/02/12 02:22:52;;;;;;;13.13;10.77;;;10.80;99.90;;;;;;5081119;28;20190;-80
2023/02/12 02:25:29;;;;;;;13.50;10.00;;;10.60;99.90;;;;;;5079135;28;20209;-81
2023/02/12 02:28:20;;;;;;;11.98;10.52;;;10.60;99.90;;;;;;5090740;28;20155;-81
2023/02/12 02:31:05;;;;;;;12.63;9.98;;;10.60;99.90;;;;;;5091217;28;20171;-81
2023/02/12 02:33:57;;;;;;;12.00;10.40;;;10.70;99.90;;;;;;5085781;28;20170;-80
2023/02/12 02:36:32;;;;;;;12.43;9.52;;;10.90;99.90;;;;;;5073871;28;20329;-80
2023/02/12 02:39:21;;;;;;;10.45;9.52;;;10.60;99.90;;;;;;5075213;28;20201;-80
2023/02/12 02:41:46;;;;;;;17.27;10.23;;;10.50;99.90;;;;;;5074719;28;20182;-81
2023/02/12 02:44:27;;;;;;;12.00;10.45;;;10.50;99.90;;;;;;5074716;28;20670;-81
2023/02/12 02:46:55;;;;;;;12.40;11.13;;;10.40;99.90;;;;;;5076530;28;20216;-80
2023/02/12 02:49:46;;;;;;;16.00;12.75;;;10.20;99.90;;;;;;5073432;28;20171;-80
2023/02/12 02:52:17;;;;;;;13.50;11.68;;;10.40;99.90;;;;;;5073666;28;20187;-80
2023/02/12 02:54:50;;;;;;;16.40;10.95;;;10.40;99.90;;;;;;5073689;28;20174;-80
2023/02/12 02:57:29;;;;;;;13.40;12.10;;;10.50;99.90;;;;;;5074675;28;20190;-80
2023/02/12 03:00:02;;;;;;;14.20;12.50;;;10.30;99.90;;;;;;5074783;28;20586;-80
2023/02/12 03:02:35;;;;;;;12.77;11.05;;;10.40;99.90;;;;;;5073205;28;20276;-80
2023/02/12 03:05:11;;;;;;;16.33;13.25;;;10.20;99.90;;;;;;5073390;28;20220;-82
2023/02/12 03:07:43;;;;;;;12.95;11.52;;;9.90;99.90;;;;;;5072985;28;20157;-80
2023/02/12 03:10:30;;;;;;;15.38;12.93;;;10.00;99.90;;;;;;5073042;28;20170;-80
2023/02/12 03:13:04;;;;;;;15.23;11.85;;;10.10;99.90;;;;;;5074413;28;20182;-80
2023/02/12 03:15:52;;;;;;;14.38;12.68;;;10.30;99.90;;;;;;5073076;28;20170;-80
2023/02/12 03:18:30;;;;;;;13.98;12.15;;;10.20;99.90;;;;;;5074341;28;20202;-81
2023/02/12 03:21:07;;;;;;;18.35;13.05;;;10.40;99.90;;;;;;5072954;28;20178;-80
2023/02/12 03:23:41;;;;;;;15.10;13.55;;;10.30;99.90;;;;;;5073122;28;20259;-80
2023/02/12 03:26:11;;;;;;;16.85;14.07;;;10.10;99.90;;;;;;5072935;28;20161;-81
2023/02/12 03:28:38;;;;;;;25.00;14.90;;;10.20;99.90;;;;;;5074207;28;20257;-80
2023/02/12 03:31:27;;;;;;;24.17;15.15;;;10.10;99.90;;;;;;5074365;28;20186;-80
2023/02/12 03:34:23;;;;;;;15.55;13.02;;;10.20;99.90;;;;;;5074161;28;20171;-80
2023/02/12 03:36:55;;;;;;;22.45;14.18;;;10.40;99.90;;;;;;5072661;28;20171;-80
2023/02/12 03:39:36;;;;;;;18.92;14.82;;;10.50;99.90;;;;;;5073862;28;20646;-80
2023/02/12 03:42:19;;;;;;;15.43;13.75;;;10.50;99.90;;;;;;5072631;28;20579;-80
2023/02/12 03:44:59;;;;;;;16.65;14.63;;;10.60;99.90;;;;;;5072652;28;20661;-80
2023/02/12 03:47:30;;;;;;;16.92;14.75;;;10.60;99.90;;;;;;5073451;28;20912;-80
2023/02/12 03:50:20;;;;;;;17.00;14.52;;;10.40;99.90;;;;;;5073606;28;20166;-80
2023/02/12 03:52:46;;;;;;;17.40;14.30;;;10.30;99.90;;;;;;5072110;28;20183;-80
2023/02/12 03:55:12;;;;;;;15.85;13.43;;;10.40;99.90;;;;;;5072695;28;20526;-81
2023/02/12 03:57:51;;;;;;;18.65;12.60;;;10.50;99.90;;;;;;5073770;28;20229;-81
2023/02/12 04:00:21;;;;;;;18.95;12.60;;;10.60;99.90;;;;;;5072182;28;20211;-80
2023/02/12 04:02:47;;;;;;;18.40;14.07;;;10.70;99.90;;;;;;5073234;28;20194;-80
2023/02/12 04:05:21;;;;;;;17.55;13.77;;;10.60;99.90;;;;;;5073446;28;20173;-80
2023/02/12 04:07:48;;;;;;;15.40;13.80;;;10.70;99.90;;;;;;5073440;28;20166;-80
2023/02/12 04:10:14;;;;;;;18.27;13.63;;;10.60;99.90;;;;;;5073272;28;20220;-80
2023/02/12 04:13:03;;;;;;;19.13;14.98;;;10.60;99.90;;;;;;5072870;28;20179;-80
2023/02/12 04:15:40;;;;;;;16.05;13.73;;;10.60;99.90;;;;;;5072902;28;20657;-82
2023/02/12 04:18:11;;;;;;;16.98;14.10;;;10.60;99.90;;;;;;5071617;28;20214;-80
2023/02/12 04:21:05;;;;;;;16.02;13.20;;;10.20;99.90;;;;;;5073131;28;20469;-81
2023/02/12 04:23:40;;;;;;;19.80;13.23;;;10.10;99.90;;;;;;5071128;28;20162;-80
2023/02/12 04:26:22;;;;;;;15.05;13.35;;;10.10;99.90;;;;;;5073003;28;20174;-81
2023/02/12 04:28:53;;;;;;;15.57;13.18;;;10.10;99.90;;;;;;5071665;28;20577;-80
2023/02/12 04:31:19;;;;;;;19.42;14.85;;;10.00;99.90;;;;;;5072851;28;20178;-81
2023/02/12 04:34:07;;;;;;;16.08;14.00;;;10.20;99.90;;;;;;5072867;28;20248;-82
2023/02/12 04:36:37;;;;;;;20.90;15.73;;;10.30;99.90;;;;;;5073003;28;20707;-81
2023/02/12 04:39:14;;;;;;;21.92;15.80;;;10.40;99.90;;;;;;5071604;28;20209;-80
2023/02/12 04:41:39;;;;;;;18.38;14.77;;;10.40;99.90;;;;;;5072333;28;20186;-80
2023/02/12 04:44:26;;;;;;;17.73;15.15;;;10.40;99.90;;;;;;5071065;28;20560;-81
2023/02/12 04:46:52;;;;;;;25.35;15.45;;;10.50;99.90;;;;;;5071557;28;20167;-81
2023/02/12 04:49:20;;;;;;;16.98;14.55;;;10.60;99.90;;;;;;5072805;28;20166;-80
2023/02/12 04:51:47;;;;;;;17.95;14.82;;;10.20;99.90;;;;;;5072763;28;20230;-80
2023/02/12 04:54:14;;;;;;;19.00;15.75;;;10.10;99.90;;;;;;5072697;28;20166;-81
2023/02/12 04:56:40;;;;;;;28.73;16.55;;;10.10;99.90;;;;;;5072821;28;20198;-81
2023/02/12 04:59:06;;;;;;;20.70;15.23;;;10.10;99.90;;;;;;5072380;28;20237;-80
2023/02/12 05:01:36;;;;;;;23.05;15.73;;;10.10;99.90;;;;;;5072484;28;20191;-80
2023/02/12 05:04:02;;;;;;;18.60;14.88;;;10.30;99.90;;;;;;5070942;28;20649;-80
2023/02/12 05:06:31;;;;;;;18.77;14.77;;;10.30;99.90;;;;;;5073359;28;20174;-80
2023/02/12 05:08:57;;;;;;;23.98;15.52;;;10.40;99.90;;;;;;5069122;28;20316;-80
2023/02/12 05:11:23;;;;;;;28.67;15.80;;;10.30;99.90;;;;;;5070979;28;20221;-80
2023/02/12 05:13:49;;;;;;;22.20;15.48;;;10.20;99.90;;;;;;5072195;28;20574;-80
2023/02/12 05:16:16;;;;;;;22.02;14.32;;;10.20;99.90;;;;;;5079880;28;20178;-80
2023/02/12 05:18:42;;;;;;;19.58;14.18;;;10.00;99.90;;;;;;5067883;28;20226;-80
2023/02/12 05:21:08;;;;;;;16.23;13.35;;;9.90;99.90;;;;;;5084769;28;20197;-79
2023/02/12 05:23:36;;;;;;;17.85;13.95;;;9.90;99.90;;;;;;5087951;28;20245;-81
2023/02/12 05:26:06;;;;;;;18.40;15.77;;;9.80;99.90;;;;;;5084053;28;20162;-81
2023/02/12 05:28:31;;;;;;;20.58;14.07;;;9.60;99.90;;;;;;5081871;28;20170;-81
2023/02/12 05:31:02;;;;;;;29.05;15.23;;;9.80;99.90;;;;;;5079958;28;20201;-82
2023/02/12 05:33:29;;;;;;;27.95;15.68;;;9.90;99.90;;;;;;5081228;28;20186;-81
2023/02/12 05:35:55;;;;;;;21.27;15.00;;;10.00;99.90;;;;;;5080197;28;20273;-81
2023/02/12 05:38:21;;;;;;;24.95;16.52;;;10.00;99.90;;;;;;5088431;28;20214;-81
2023/02/12 05:40:47;;;;;;;20.42;15.13;;;10.00;99.90;;;;;;5091934;28;20179;-80
2023/02/12 05:43:13;;;;;;;19.58;15.75;;;10.10;99.90;;;;;;5083994;28;20281;-81
2023/02/12 05:45:44;;;;;;;23.95;16.13;;;10.00;99.90;;;;;;5078447;28;20237;-80
2023/02/12 05:48:09;;;;;;;20.17;15.40;;;10.00;99.90;;;;;;5082898;28;20173;-80
2023/02/12 05:50:37;;;;;;;29.80;15.45;;;10.20;99.90;;;;;;5084664;28;20170;-79
2023/02/12 05:53:03;;;;;;;17.13;14.20;;;10.30;99.90;;;;;;5081817;28;20199;-81
2023/02/12 05:55:28;;;;;;;18.27;14.60;;;10.10;99.90;;;;;;5077555;28;20677;-80
2023/02/12 05:57:54;;;;;;;30.17;15.10;;;10.10;99.90;;;;;;5081304;28;20303;-80
2023/02/12 06:00:20;;;;;;;26.73;18.40;;;9.90;99.90;;;;;;5077760;28;20178;-81
2023/02/12 06:02:47;;;;;;;20.70;15.50;;;10.00;99.90;;;;;;5077055;28;20183;-81
2023/02/12 06:05:12;;;;;;;21.27;15.52;;;10.20;99.90;;;;;;5074874;28;20170;-82
2023/02/12 06:07:38;;;;;;;21.73;16.80;;;10.20;99.90;;;;;;5074399;28;20175;-80
2023/02/12 06:10:05;;;;;;;21.60;16.75;;;10.10;99.90;;;;;;5074556;28;20526;-82
2023/02/12 06:12:31;;;;;;;20.95;16.00;;;10.20;99.90;;;;;;5073573;28;20689;-81
2023/02/12 06:14:57;;;;;;;30.13;17.15;;;10.20;99.90;;;;;;5078532;28;20608;-82
2023/02/12 06:17:22;;;;;;;18.45;15.75;;;10.00;99.90;;;;;;5074630;28;20190;-80
2023/02/12 06:19:48;;;;;;;19.45;15.27;;;10.00;99.90;;;;;;5076803;28;20170;-82
2023/02/12 06:22:13;;;;;;;21.58;15.13;;;10.10;99.90;;;;;;5074606;28;20327;-83
2023/02/12 06:24:40;;;;;;;20.42;15.70;;;10.10;99.90;;;;;;5075132;28;20627;-81
2023/02/12 06:27:05;;;;;;;19.27;14.88;;;9.90;99.90;;;;;;5074278;28;20265;-82
2023/02/12 06:29:31;;;;;;;31.48;18.00;;;9.80;99.90;;;;;;5075710;28;20248;-82
2023/02/12 06:31:57;;;;;;;22.70;17.20;;;10.00;99.90;;;;;;5075254;28;20194;-80
2023/02/12 06:34:22;;;;;;;19.33;16.08;;;10.00;99.90;;;;;;5074732;28;20239;-81
2023/02/12 06:36:49;;;;;;;21.33;16.35;;;10.10;99.90;;;;;;5076290;28;20172;-80
2023/02/12 06:39:16;;;;;;;35.17;17.75;;;10.20;99.90;;;;;;5077293;28;20205;-82
2023/02/12 06:41:42;;;;;;;32.83;17.92;;;10.20;99.90;;;;;;5078691;28;20190;-83
2023/02/12 06:44:10;;;;;;;21.52;16.48;;;10.10;99.90;;;;;;5077713;28;20171;-81
2023/02/12 06:46:37;;;;;;;30.90;19.63;;;10.10;99.90;;;;;;5078598;28;20584;-81
2023/02/12 06:49:04;;;;;;;28.70;18.40;;;10.10;99.90;;;;;;5086099;28;20193;-82
2023/02/12 06:51:30;;;;;;;30.40;18.60;;;10.30;99.90;;;;;;5084758;28;20195;-82
2023/02/12 06:53:56;;;;;;;25.73;17.52;;;10.30;99.90;;;;;;5079872;28;20507;-82
2023/02/12 06:56:23;;;;;;;22.40;16.98;;;10.20;99.90;;;;;;5077846;28;20174;-82
2023/02/12 06:58:57;;;;;;;30.35;18.02;;;10.10;99.90;;;;;;5075728;28;20210;-82
2023/02/12 07:01:25;;;;;;;23.48;17.73;;;10.20;99.90;;;;;;5078131;28;20182;-82
2023/02/12 07:03:54;;;;;;;33.47;17.75;;;10.20;99.90;;;;;;5076009;28;20173;-82
2023/02/12 07:06:28;;;;;;;33.80;17.38;;;10.30;99.90;;;;;;5077510;28;20559;-83
2023/02/12 07:08:55;;;;;;;36.85;19.70;;;10.30;99.90;;;;;;5059772;28;20177;-82
2023/02/12 07:11:30;;;;;;;32.80;18.27;;;10.40;99.90;;;;;;5074815;28;20181;-82
2023/02/12 07:13:55;;;;;;;24.75;18.20;;;10.30;99.90;;;;;;5073456;28;20185;-82
2023/02/12 07:16:21;;;;;;;37.92;18.35;;;10.20;99.90;;;;;;5074351;28;20175;-82
2023/02/12 07:18:47;;;;;;;30.65;19.13;;;10.20;99.90;;;;;;5076370;28;20209;-82
2023/02/12 07:21:14;;;;;;;29.70;18.23;;;10.30;99.90;;;;;;5074043;28;20574;-80
2023/02/12 07:23:40;;;;;;;25.70;17.73;;;10.20;99.90;;;;;;5072985;28;20182;-82
2023/02/12 07:26:10;;;;;;;32.65;19.25;;;10.30;99.90;;;;;;5075649;28;20162;-81
2023/02/12 07:28:36;;;;;;;29.80;19.20;;;10.30;99.90;;;;;;5074644;28;20171;-82
2023/02/12 07:31:13;;;;;;;39.03;18.20;;;10.30;99.90;;;;;;5077633;28;20540;-81
2023/02/12 07:33:40;;;;;;;25.02;18.33;;;10.30;99.90;;;;;;5074415;28;20158;-82
2023/02/12 07:36:08;;;;;;;30.65;20.02;;;10.20;99.90;;;;;;5073240;28;20181;-81
2023/02/12 07:38:38;;;;;;;34.63;18.50;;;10.30;99.90;;;;;;5073474;28;20202;-81
2023/02/12 07:41:12;;;;;;;39.35;18.45;;;10.20;99.90;;;;;;5074216;28;20182;-83
2023/02/12 07:43:39;;;;;;;32.65;19.38;;;10.30;99.90;;;;;;5073021;28;20170;-85
2023/02/12 07:46:17;;;;;;;26.88;18.55;;;10.30;99.90;;;;;;5076785;28;20244;-81
2023/02/12 07:48:44;;;;;;;26.33;18.33;;;10.20;99.90;;;;;;5085836;28;20236;-81
2023/02/12 07:51:15;;;;;;;28.67;19.15;;;10.40;99.90;;;;;;5095501;28;20206;-80
2023/02/12 07:53:43;;;;;;;30.42;19.58;;;10.40;99.90;;;;;;5077278;28;20257;-82
2023/02/12 07:56:16;;;;;;;27.40;19.08;;;10.20;99.90;;;;;;5072617;28;20163;-80
2023/02/12 07:58:43;;;;;;;28.77;19.73;;;10.30;99.90;;;;;;5073849;28;20202;-80
2023/02/12 08:01:25;;;;;;;36.45;19.98;;;10.60;99.90;;;;;;5073839;28;20155;-82
2023/02/12 08:03:51;;;;;;;32.40;19.63;;;10.70;99.90;;;;;;5072487;28;20201;-80
2023/02/12 08:06:20;;;;;;;26.27;19.08;;;10.80;99.90;;;;;;5072448;28;20264;-81
2023/02/12 08:08:46;;;;;;;31.67;19.55;;;10.80;99.90;;;;;;5074776;28;20171;-84
2023/02/12 08:11:13;;;;;;;30.63;20.15;;;11.00;99.90;;;;;;5072583;28;20643;-81
2023/02/12 08:13:40;;;;;;;34.63;19.63;;;10.90;99.90;;;;;;5071891;28;20192;-81
2023/02/12 08:16:08;;;;;;;27.08;18.85;;;10.60;99.90;;;;;;5073304;28;20170;-80
2023/02/12 08:18:34;;;;;;;33.53;20.67;;;10.60;99.90;;;;;;5073358;28;20202;-81
2023/02/12 08:21:02;;;;;;;32.72;18.92;;;10.70;99.90;;;;;;5073312;28;20170;-80
2023/02/12 08:23:28;;;;;;;29.10;21.08;;;10.70;99.90;;;;;;5075001;28;20716;-81
2023/02/12 08:25:53;;;;;;;26.48;19.13;;;10.80;99.90;;;;;;5075536;28;20273;-84
2023/02/12 08:28:19;;;;;;;31.67;18.58;;;10.70;99.90;;;;;;5085018;28;20514;-83
2023/02/12 08:30:45;;;;;;;27.30;19.02;;;10.80;99.90;;;;;;5074105;28;20202;-84
2023/02/12 08:33:13;;;;;;;30.98;18.38;;;10.80;99.90;;;;;;5074178;28;20195;-82
2023/02/12 08:35:40;;;;;;;28.45;18.33;;;11.00;99.90;;;;;;5073702;28;20159;-80
2023/02/12 08:38:06;;;;;;;27.48;18.33;;;11.30;99.90;;;;;;5073506;28;20313;-83
2023/02/12 08:40:32;;;;;;;29.65;18.90;;;11.20;99.90;;;;;;5077605;28;20211;-85
2023/02/12 08:42:59;;;;;;;23.27;17.50;;;11.20;99.90;;;;;;5083048;28;20210;-81
2023/02/12 08:45:26;;;;;;;33.35;19.20;;;11.30;99.90;;;;;;5080205;28;20609;-80
2023/02/12 08:47:52;;;;;;;28.15;18.13;;;11.40;99.90;;;;;;5081966;28;20166;-81
2023/02/12 08:50:19;;;;;;;31.05;19.08;;;11.40;99.90;;;;;;5080106;28;20163;-79
2023/02/12 08:52:44;;;;;;;42.35;19.50;;;11.20;99.90;;;;;;5057587;28;20654;-82
2023/02/12 08:55:10;;;;;;;27.67;19.48;;;11.30;99.90;;;;;;5073053;28;20166;-84
2023/02/12 08:57:35;;;;;;;30.70;19.52;;;11.30;99.90;;;;;;5072649;28;20498;-81
2023/02/12 09:00:02;;;;;;;31.95;18.58;;;11.40;99.90;;;;;;5072219;28;20166;-82
2023/02/12 09:02:32;;;;;;;35.95;18.98;;;11.30;99.90;;;;;;5072094;28;20698;-81
2023/02/12 09:04:57;;;;;;;27.23;19.20;;;11.40;99.90;;;;;;5071218;28;20227;-79
2023/02/12 09:07:23;;;;;;;29.00;19.70;;;11.30;99.90;;;;;;5072261;28;20182;-79
2023/02/12 09:09:48;;;;;;;29.55;18.92;;;11.30;99.90;;;;;;5072975;28;20703;-79
2023/02/12 09:12:14;;;;;;;27.05;17.88;;;11.30;99.90;;;;;;5072622;28;20179;-79
2023/02/12 09:14:39;;;;;;;32.17;18.80;;;11.30;99.90;;;;;;5072235;28;20225;-80
2023/02/12 09:17:05;;;;;;;27.23;17.23;;;11.40;99.90;;;;;;5070224;28;20174;-82
2023/02/12 09:19:31;;;;;;;24.42;17.35;;;11.40;99.90;;;;;;5070522;28;20228;-80
2023/02/12 09:21:56;;;;;;;23.52;17.80;;;11.50;99.90;;;;;;5070691;28;20228;-80
2023/02/12 09:24:23;;;;;;;27.35;15.80;;;11.40;99.90;;;;;;5072500;28;20254;-80
2023/02/12 09:26:48;;;;;;;20.17;14.80;;;11.60;99.90;;;;;;5072022;28;20186;-80
2023/02/12 09:29:14;;;;;;;35.70;16.10;;;11.80;99.90;;;;;;5070626;28;20205;-80
2023/02/12 09:31:40;;;;;;;27.27;15.85;;;11.70;99.90;;;;;;5071700;28;20190;-79
2023/02/12 09:34:06;;;;;;;20.65;14.65;;;11.60;99.90;;;;;;5071077;28;20169;-84
2023/02/12 09:36:33;;;;;;;28.60;16.80;;;11.60;99.90;;;;;;5072161;28;20659;-80
2023/02/12 09:39:00;;;;;;;25.33;16.42;;;11.60;99.90;;;;;;5072834;28;20213;-81
2023/02/12 09:42:17;;;;;;;23.90;16.17;;;11.60;99.90;;;;;;5071239;28;20182;-80
2023/02/12 09:44:45;;;;;;;24.48;16.05;;;11.80;99.90;;;;;;5027803;28;20183;-80
2023/02/12 09:47:28;;;;;;;20.90;16.02;;;11.80;99.90;;;;;;5073342;28;20169;-80
2023/02/12 09:50:31;;;;;;;22.20;15.88;;;11.90;99.90;;;;;;5071854;28;20170;-85
2023/02/12 09:52:58;;;;;;;21.17;15.35;;;11.90;99.90;;;;;;5072595;28;20202;-80
2023/02/12 09:55:28;;;;;;;25.52;16.40;;;12.00;99.90;;;;;;5072337;28;20161;-80
2023/02/12 09:57:53;;;;;;;26.92;15.50;;;11.80;99.90;;;;;;5072730;28;20277;-80
2023/02/12 10:00:19;;;;;;;22.40;16.13;;;11.50;99.90;;;;;;5073907;28;20197;-81
2023/02/12 10:02:45;;;;;;;20.48;16.00;;;11.10;99.90;;;;;;5072380;28;20715;-80
2023/02/12 10:05:21;;;;;;;20.40;15.02;;;11.00;99.90;;;;;;5071686;28;20519;-80
2023/02/12 10:08:01;;;;;;;33.80;15.13;;;11.10;99.90;;;;;;5070649;28;20584;-81
2023/02/12 10:10:51;;;;;;;22.70;14.93;;;11.20;99.90;;;;;;5070724;28;20209;-81
2023/02/12 10:13:29;;;;;;;25.98;15.85;;;11.40;99.90;;;;;;5074228;28;20240;-82
2023/02/12 10:16:07;;;;;;;25.48;13.20;;;11.50;99.90;;;;;;5074211;28;20170;-82
2023/02/12 10:19:08;;;;;;;18.35;14.10;;;11.50;99.90;;;;;;5076249;28;20230;-81
2023/02/12 10:21:54;;;;;;;21.52;14.15;;;11.40;99.90;;;;;;5082411;28;20269;-82
2023/02/12 10:24:48;;;;;;;30.75;13.63;;;11.70;99.90;;;;;;5086468;28;20169;-81
2023/02/12 10:27:19;;;;;;;21.80;13.88;;;11.90;99.90;;;;;;5094598;28;20495;-81
2023/02/12 10:29:47;;;;;;;20.10;14.02;;;11.80;99.90;;;;;;5098824;28;20155;-79
2023/02/12 10:32:21;;;;;;;30.20;15.75;;;11.90;99.90;;;;;;5098916;28;20201;-81
2023/02/12 10:34:49;;;;;;;34.08;16.27;;;12.00;99.90;;;;;;5091391;28;20181;-82
2023/02/12 10:37:49;;;;;;;33.53;18.40;;;11.90;99.90;;;;;;5076050;28;20162;-80
2023/02/12 10:40:29;;;;;;;27.17;18.55;;;11.60;99.90;;;;;;5074056;28;20170;-79
2023/02/12 10:42:56;;;;;;;30.45;16.33;;;11.20;99.90;;;;;;5075830;28;20523;-80
2023/02/12 10:45:42;;;;;;;29.50;17.27;;;11.10;99.90;;;;;;5075157;28;20253;-80
2023/02/12 10:48:15;;;;;;;27.33;17.27;;;11.10;99.90;;;;;;5075228;28;20177;-80
2023/02/12 10:50:54;;;;;;;30.25;19.08;;;11.20;99.90;;;;;;5075036;28;20245;-81
2023/02/12 10:53:23;;;;;;;27.63;17.73;;;11.10;99.90;;;;;;5073476;28;20198;-80
2023/02/12 10:55:49;;;;;;;27.23;17.73;;;10.90;99.90;;;;;;5074010;28;20202;-80
2023/02/12 10:58:23;;;;;;;28.90;18.25;;;10.80;99.90;;;;;;5074840;28;20230;-81
2023/02/12 11:00:59;;;;;;;34.20;17.25;;;10.80;99.90;;;;;;5074393;28;20171;-81
2023/02/12 11:03:33;;;;;;;33.53;18.45;;;10.60;99.90;;;;;;5074928;28;20573;-82
2023/02/12 11:06:15;;;;;;;31.27;17.65;;;10.70;99.90;;;;;;5075215;28;20167;-81
2023/02/12 11:08:41;;;;;;;25.33;17.33;;;10.70;99.90;;;;;;5074411;28;20173;-80
2023/02/12 11:11:19;;;;;;;28.40;18.25;;;10.60;99.90;;;;;;5073353;28;20571;-80
2023/02/12 11:14:02;;;;;;;27.42;17.13;;;10.80;99.90;;;;;;5072908;28;20270;-80
2023/02/12 11:16:33;;;;;;;27.08;16.77;;;11.20;99.90;;;;;;5074730;28;20209;-81
2023/02/12 11:19:05;;;;;;;28.73;17.33;;;11.30;99.90;;;;;;5074407;28;20668;-81
2023/02/12 11:21:42;;;;;;;30.23;17.33;;;11.40;99.90;;;;;;5074830;28;20580;-81
2023/02/12 11:24:31;;;;;;;33.40;17.30;;;11.50;99.90;;;;;;5071825;28;20188;-81
2023/02/12 11:27:20;;;;;;;28.67;17.98;;;11.60;99.90;;;;;;5074507;28;20813;-80
2023/02/12 11:29:50;;;;;;;31.02;18.45;;;11.60;99.90;;;;;;5074311;28;20155;-80
2023/02/12 11:32:18;;;;;;;24.27;16.05;;;11.40;99.90;;;;;;5073057;28;20639;-82
2023/02/12 11:34:46;;;;;;;26.42;17.55;;;11.20;99.90;;;;;;5074207;28;20211;-81
2023/02/12 11:37:18;;;;;;;26.17;17.40;;;11.30;99.90;;;;;;5074132;28;20170;-79
2023/02/12 11:39:49;;;;;;;24.05;15.40;;;11.50;99.90;;;;;;5074384;28;20167;-80
2023/02/12 11:42:16;;;;;;;20.52;16.35;;;11.70;99.90;;;;;;5073582;28;20179;-80
2023/02/12 11:44:55;;;;;;;26.90;16.38;;;11.80;99.90;;;;;;5074341;28;20163;-79
2023/02/12 11:47:26;;;;;;;21.35;16.10;;;11.80;99.90;;;;;;5076306;28;20161;-79
2023/02/12 11:50:05;;;;;;;23.48;16.02;;;11.60;99.90;;;;;;5074572;28;20163;-80
2023/02/12 11:52:33;;;;;;;29.75;16.23;;;11.40;99.90;;;;;;5072182;28;20202;-80
2023/02/12 11:55:01;;;;;;;23.77;15.43;;;11.40;99.90;;;;;;5073653;28;20170;-79
2023/02/12 11:57:48;;;;;;;28.60;16.50;;;11.70;99.90;;;;;;5071897;28;20174;-80
2023/02/12 12:00:31;;;;;;;22.73;15.95;;;11.80;99.90;;;;;;5072218;28;20170;-81
2023/02/12 12:03:17;;;;;;;20.42;14.88;;;11.60;99.90;;;;;;5072890;28;20638;-82
2023/02/12 12:05:53;;;;;;;26.88;15.43;;;11.70;99.90;;;;;;5072657;28;20482;-82
2023/02/12 12:08:23;;;;;;;32.08;15.57;;;11.60;99.90;;;;;;5073535;28;20181;-82
2023/02/12 12:11:02;;;;;;;28.33;14.60;;;11.70;99.90;;;;;;5071758;28;20257;-82
2023/02/12 12:13:34;;;;;;;21.90;13.38;;;11.90;99.90;;;;;;5073017;28;20264;-81
2023/02/12 12:22:19;;;;;;;21.00;13.90;;;11.70;99.90;;;;;;5073424;28;20268;-82
2023/02/12 12:25:06;;;;;;;19.58;13.75;;;11.60;99.90;;;;;;5075958;28;20170;-80
2023/02/12 12:28:02;;;;;;;20.02;13.30;;;11.60;99.90;;;;;;5073045;28;20867;-81
2023/02/12 12:30:54;;;;;;;22.60;14.77;;;11.40;99.90;;;;;;5071633;28;20670;-80
2023/02/12 12:33:39;;;;;;;20.80;13.38;;;11.40;99.90;;;;;;5071040;28;20284;-80
2023/02/12 12:36:39;;;;;;;20.92;13.63;;;11.50;99.90;;;;;;5069375;28;20175;-81
2023/02/12 12:39:11;;;;;;;19.13;13.00;;;11.20;99.90;;;;;;5027469;28;20219;-79
2023/02/12 12:41:49;;;;;;;17.40;12.95;;;11.30;99.90;;;;;;5069720;28;20645;-81
2023/02/12 12:44:42;;;;;;;24.05;14.38;;;11.30;99.90;;;;;;5073940;28;20170;-79
2023/02/12 12:47:26;;;;;;;22.20;12.38;;;11.60;99.90;;;;;;5072278;28;20174;-80
2023/02/12 12:50:01;;;;;;;33.40;13.00;;;11.60;99.90;;;;;;5071672;28;20166;-80
2023/02/12 12:52:59;;;;;;;20.15;12.70;;;11.50;99.90;;;;;;5058047;28;20191;-85
2023/02/12 12:56:04;;;;;;;17.48;12.88;;;11.40;99.90;;;;;;5062807;28;20178;-80
2023/02/12 12:58:48;;;;;;;16.80;12.85;;;11.50;99.90;;;;;;5061956;28;20214;-80
2023/02/12 13:01:42;;;;;;;18.80;12.32;;;11.40;99.90;;;;;;5073207;28;20197;-80